Time;durP1;ratioP1;P1;durP2;ratioP2;P2;SDS_P1;SDS_P2;PMS_P1;PMS_P2;Temp;Humidity;BMP_temperature;BMP_pressure;BME280_temperature;BME280_humidity;BME280_pressure;Samples;Min_cycle;Max_cycle;Signal;HPM_P1;HPM_P2
2023/11/16 00:00:14;;;;;;;15.32;3.85;;;10.60;99.90;;;;;;5020674;28;20569;-72
2023/11/16 00:02:43;;;;;;;11.63;3.80;;;10.70;99.90;;;;;;5026611;27;20110;-72
2023/11/16 00:05:15;;;;;;;13.93;3.72;;;10.60;99.90;;;;;;5020480;28;20026;-71
2023/11/16 00:07:41;;;;;;;22.08;4.57;;;10.70;99.90;;;;;;5022513;27;20026;-71
2023/11/16 00:10:11;;;;;;;13.05;4.38;;;10.60;99.90;;;;;;5037646;27;20391;-71
2023/11/16 00:12:39;;;;;;;17.48;4.70;;;10.60;99.90;;;;;;5039008;27;20026;-71
2023/11/16 00:15:08;;;;;;;12.40;4.10;;;10.60;99.90;;;;;;5025480;27;20104;-71
2023/11/16 00:17:36;;;;;;;16.15;4.45;;;10.60;99.90;;;;;;5029679;27;20029;-71
2023/11/16 00:20:10;;;;;;;12.68;4.63;;;10.60;99.90;;;;;;5037678;27;20557;-71
2023/11/16 00:22:37;;;;;;;18.33;4.45;;;10.50;99.90;;;;;;5025341;27;20028;-71
2023/11/16 00:25:06;;;;;;;13.45;4.70;;;10.50;99.90;;;;;;5034845;27;20055;-72
2023/11/16 00:27:32;;;;;;;13.52;4.43;;;10.50;99.90;;;;;;5033708;27;20057;-71
2023/11/16 00:29:58;;;;;;;23.75;6.00;;;10.50;99.90;;;;;;5040352;27;20009;-71
2023/11/16 00:32:24;;;;;;;18.05;5.22;;;10.50;99.90;;;;;;5021214;27;20032;-71
2023/11/16 00:34:50;;;;;;;12.80;3.92;;;10.50;99.90;;;;;;5023831;27;20100;-71
2023/11/16 00:37:16;;;;;;;17.45;3.85;;;10.50;99.90;;;;;;5030949;27;20475;-73
2023/11/16 00:39:43;;;;;;;13.40;4.13;;;10.60;99.90;;;;;;5024792;27;20029;-71
2023/11/16 00:42:08;;;;;;;13.38;3.88;;;10.50;99.90;;;;;;5025553;27;20044;-71
2023/11/16 00:44:34;;;;;;;20.02;4.00;;;10.50;99.90;;;;;;5034701;27;20096;-72
2023/11/16 00:47:03;;;;;;;21.77;4.28;;;10.50;99.90;;;;;;5034242;27;20067;-71
2023/11/16 00:49:29;;;;;;;16.20;4.10;;;10.50;99.90;;;;;;5031725;27;20053;-71
2023/11/16 00:51:54;;;;;;;13.27;4.38;;;10.50;99.90;;;;;;5031372;27;20062;-71
2023/11/16 00:54:22;;;;;;;16.35;4.18;;;10.50;99.90;;;;;;5029212;27;20386;-73
2023/11/16 00:56:48;;;;;;;14.90;4.10;;;10.50;99.90;;;;;;5036153;27;20021;-71
2023/11/16 00:59:14;;;;;;;15.43;4.22;;;10.50;99.90;;;;;;5015876;28;20022;-72
2023/11/16 01:01:40;;;;;;;12.73;4.68;;;10.50;99.90;;;;;;5025364;27;20067;-71
2023/11/16 01:04:11;;;;;;;12.80;3.53;;;10.60;99.90;;;;;;5026191;27;20029;-72
2023/11/16 01:06:39;;;;;;;15.93;4.75;;;10.50;99.90;;;;;;5027222;27;20026;-72
2023/11/16 01:09:07;;;;;;;15.52;3.67;;;10.50;99.90;;;;;;5018649;28;20057;-71
2023/11/16 01:11:36;;;;;;;20.35;4.25;;;10.50;99.90;;;;;;5028307;28;20029;-73
2023/11/16 01:14:02;;;;;;;15.68;4.20;;;10.60;99.90;;;;;;5041212;27;20094;-72
2023/11/16 01:16:38;;;;;;;13.98;4.13;;;10.60;99.90;;;;;;5034038;27;20060;-72
2023/11/16 01:19:04;;;;;;;14.75;4.45;;;10.60;99.90;;;;;;5026324;28;20053;-72
2023/11/16 01:21:29;;;;;;;20.15;4.78;;;10.50;99.90;;;;;;5019900;28;20038;-72
2023/11/16 01:24:04;;;;;;;14.75;4.32;;;10.40;99.90;;;;;;5020747;28;20814;-72
2023/11/16 01:26:30;;;;;;;16.63;4.97;;;10.50;99.90;;;;;;5023783;28;20021;-71
2023/11/16 01:29:05;;;;;;;16.98;5.30;;;10.50;99.90;;;;;;5030146;28;20033;-71
2023/11/16 01:31:31;;;;;;;18.20;4.97;;;10.50;99.90;;;;;;5027342;28;20026;-73
2023/11/16 01:33:56;;;;;;;12.90;4.90;;;10.40;99.90;;;;;;5028885;28;20418;-71
2023/11/16 01:36:24;;;;;;;23.30;5.55;;;10.40;99.90;;;;;;5025122;28;20030;-71
2023/11/16 01:38:50;;;;;;;20.92;5.07;;;10.40;99.90;;;;;;5027221;28;20135;-71
2023/11/16 01:41:18;;;;;;;18.42;5.70;;;10.30;99.90;;;;;;5025384;28;20144;-71
2023/11/16 01:43:44;;;;;;;10.95;4.20;;;10.40;99.90;;;;;;5021509;28;20377;-71
2023/11/16 01:46:11;;;;;;;13.82;4.68;;;10.40;99.90;;;;;;5026970;27;20078;-72
2023/11/16 01:48:44;;;;;;;25.70;5.60;;;10.40;99.90;;;;;;5027346;28;20022;-71
2023/11/16 01:51:14;;;;;;;18.52;4.72;;;10.40;99.90;;;;;;5035284;28;20166;-71
2023/11/16 01:53:50;;;;;;;20.05;4.72;;;10.30;99.90;;;;;;5027673;28;20022;-72
2023/11/16 01:56:16;;;;;;;11.25;4.78;;;10.30;99.90;;;;;;5026471;28;20033;-69
2023/11/16 01:58:45;;;;;;;21.45;5.32;;;10.20;99.90;;;;;;5033453;28;20029;-72
2023/11/16 02:01:12;;;;;;;18.27;4.88;;;10.20;99.90;;;;;;5020456;28;20152;-72
2023/11/16 02:03:38;;;;;;;17.90;5.22;;;10.10;99.90;;;;;;5016098;28;20388;-71
2023/11/16 02:06:04;;;;;;;18.60;4.78;;;10.10;99.90;;;;;;5016939;28;20030;-73
2023/11/16 02:08:30;;;;;;;19.95;4.97;;;10.20;99.90;;;;;;5027371;28;20405;-72
2023/11/16 02:10:56;;;;;;;16.63;5.03;;;10.20;99.90;;;;;;5020633;28;20030;-71
2023/11/16 02:13:24;;;;;;;12.70;4.85;;;10.20;99.90;;;;;;5024182;28;20030;-71
2023/11/16 02:15:52;;;;;;;20.20;5.00;;;10.20;99.90;;;;;;5018923;28;20026;-71
2023/11/16 02:18:17;;;;;;;14.40;4.28;;;10.20;99.90;;;;;;5030352;27;20041;-72
2023/11/16 02:20:47;;;;;;;17.95;5.05;;;10.10;99.90;;;;;;5036482;27;20035;-72
2023/11/16 02:23:14;;;;;;;13.88;5.20;;;10.10;99.90;;;;;;5025935;27;20037;-71
2023/11/16 02:25:45;;;;;;;18.80;5.53;;;10.10;99.90;;;;;;5021056;27;20057;-71
2023/11/16 02:28:11;;;;;;;21.23;4.90;;;10.20;99.90;;;;;;5022827;27;20064;-72
2023/11/16 02:30:38;;;;;;;16.75;4.63;;;10.10;99.90;;;;;;5033260;27;20021;-72
2023/11/16 02:33:07;;;;;;;17.60;5.18;;;10.20;99.90;;;;;;5030252;27;20113;-72
2023/11/16 02:35:33;;;;;;;14.07;4.50;;;10.20;99.90;;;;;;5022146;27;20022;-71
2023/11/16 02:37:59;;;;;;;25.45;5.68;;;10.10;99.90;;;;;;5038413;27;20055;-71
2023/11/16 02:40:28;;;;;;;17.42;5.57;;;10.10;99.90;;;;;;5018584;27;20037;-71
2023/11/16 02:42:54;;;;;;;17.45;5.03;;;10.10;99.90;;;;;;5028072;27;20116;-71
2023/11/16 02:45:23;;;;;;;22.08;5.60;;;10.10;99.90;;;;;;5029342;27;20422;-72
2023/11/16 02:47:53;;;;;;;24.73;5.75;;;10.00;99.90;;;;;;5030957;27;20030;-71
2023/11/16 02:50:22;;;;;;;24.73;6.53;;;10.00;99.90;;;;;;5028517;27;20481;-71
2023/11/16 02:52:51;;;;;;;15.05;4.80;;;9.90;99.90;;;;;;5023338;28;20013;-71
2023/11/16 02:55:20;;;;;;;19.98;5.43;;;9.90;99.90;;;;;;5027073;27;20028;-71
2023/11/16 02:57:46;;;;;;;21.40;5.90;;;10.00;99.90;;;;;;5029390;27;20066;-71
2023/11/16 03:00:12;;;;;;;19.30;5.75;;;10.00;99.90;;;;;;5034682;27;20060;-71
2023/11/16 03:02:42;;;;;;;19.50;5.63;;;9.90;99.90;;;;;;5022931;27;20078;-72
2023/11/16 03:05:14;;;;;;;20.73;5.25;;;9.90;99.90;;;;;;5036699;27;20428;-71
2023/11/16 03:07:41;;;;;;;20.38;5.15;;;9.90;99.90;;;;;;5019012;27;20026;-71
2023/11/16 03:10:11;;;;;;;21.48;5.78;;;9.90;99.90;;;;;;5027012;27;20022;-71
2023/11/16 03:12:39;;;;;;;22.33;5.95;;;9.90;99.90;;;;;;5019167;27;20031;-71
2023/11/16 03:15:06;;;;;;;21.60;5.55;;;9.90;99.90;;;;;;5027694;27;20370;-71
2023/11/16 03:17:38;;;;;;;17.33;5.63;;;9.90;99.90;;;;;;5028850;27;20037;-72
2023/11/16 03:20:04;;;;;;;20.48;5.57;;;10.00;99.90;;;;;;5030765;27;20040;-71
2023/11/16 03:22:31;;;;;;;19.35;5.53;;;9.90;99.90;;;;;;5025149;27;20022;-71
2023/11/16 03:24:56;;;;;;;22.67;5.35;;;9.80;99.90;;;;;;5019881;27;20355;-71
2023/11/16 03:27:22;;;;;;;21.55;5.30;;;9.90;99.90;;;;;;5034015;27;20100;-71
2023/11/16 03:29:51;;;;;;;16.38;5.50;;;9.90;99.90;;;;;;5023736;28;20045;-71
2023/11/16 03:32:18;;;;;;;12.20;4.80;;;9.90;99.90;;;;;;5024797;27;20078;-72
2023/11/16 03:34:44;;;;;;;17.13;6.13;;;9.90;99.90;;;;;;5030176;27;20021;-71
2023/11/16 03:37:10;;;;;;;17.13;5.60;;;9.90;99.90;;;;;;5019996;27;20025;-71
2023/11/16 03:39:36;;;;;;;15.18;4.88;;;9.90;99.90;;;;;;5034327;27;20022;-71
2023/11/16 03:42:03;;;;;;;24.67;5.50;;;9.90;99.90;;;;;;5019359;28;20477;-71
2023/11/16 03:44:29;;;;;;;19.73;5.47;;;9.90;99.90;;;;;;5035274;27;20419;-71
2023/11/16 03:46:55;;;;;;;27.58;6.00;;;9.90;99.90;;;;;;5034024;27;20636;-71
2023/11/16 03:49:22;;;;;;;15.77;5.50;;;9.80;99.90;;;;;;5030649;27;20036;-71
2023/11/16 03:51:48;;;;;;;23.00;5.45;;;9.80;99.90;;;;;;5029398;27;20114;-72
2023/11/16 03:54:15;;;;;;;19.67;5.47;;;9.90;99.90;;;;;;5021350;28;20037;-71
2023/11/16 03:56:41;;;;;;;18.27;5.35;;;9.80;99.90;;;;;;5026032;27;20026;-71
2023/11/16 03:59:07;;;;;;;21.23;5.07;;;9.90;99.90;;;;;;5015341;28;20026;-71
2023/11/16 04:01:35;;;;;;;20.10;4.82;;;9.90;99.90;;;;;;5035584;27;20795;-70
2023/11/16 04:04:00;;;;;;;17.15;4.97;;;9.90;99.90;;;;;;5040605;27;20028;-71
2023/11/16 04:06:26;;;;;;;15.57;4.90;;;9.90;99.90;;;;;;5038334;27;20021;-71
2023/11/16 04:08:52;;;;;;;21.08;4.78;;;9.90;99.90;;;;;;5025507;27;20029;-71
2023/11/16 04:11:19;;;;;;;22.17;5.20;;;10.00;99.90;;;;;;5031035;27;20022;-71
2023/11/16 04:13:46;;;;;;;22.67;5.68;;;10.00;99.90;;;;;;5032082;27;20382;-71
2023/11/16 04:16:23;;;;;;;15.63;4.65;;;10.00;99.90;;;;;;5033992;27;20171;-71
2023/11/16 04:18:50;;;;;;;14.18;4.53;;;10.00;99.90;;;;;;5031433;27;20024;-71
2023/11/16 04:21:20;;;;;;;17.08;4.90;;;9.90;99.90;;;;;;5035239;27;20042;-71
2023/11/16 04:23:56;;;;;;;15.85;5.25;;;9.90;99.90;;;;;;5027489;27;20062;-71
2023/11/16 04:26:31;;;;;;;13.68;4.30;;;10.00;99.90;;;;;;5026459;27;20095;-71
2023/11/16 04:28:57;;;;;;;20.30;4.60;;;9.90;99.90;;;;;;5023808;27;20032;-71
2023/11/16 04:31:26;;;;;;;15.38;5.00;;;9.90;99.90;;;;;;5035178;27;20065;-71
2023/11/16 04:33:54;;;;;;;18.08;5.10;;;9.90;99.90;;;;;;5029645;27;20022;-71
2023/11/16 04:36:23;;;;;;;20.83;5.00;;;9.80;99.90;;;;;;5022711;27;20014;-71
2023/11/16 04:38:55;;;;;;;12.15;4.80;;;9.80;99.90;;;;;;5028525;27;20034;-71
2023/11/16 04:41:22;;;;;;;17.50;4.47;;;9.80;99.90;;;;;;5027281;27;20034;-72
2023/11/16 04:43:47;;;;;;;18.70;5.00;;;9.80;99.90;;;;;;5018973;27;20021;-71
2023/11/16 04:46:13;;;;;;;18.85;5.32;;;9.90;99.90;;;;;;5030560;27;20051;-71
2023/11/16 04:48:41;;;;;;;17.05;4.80;;;9.90;99.90;;;;;;5018885;27;20070;-71
2023/11/16 04:51:07;;;;;;;13.20;4.63;;;9.80;99.90;;;;;;5031186;27;20040;-71
2023/11/16 04:53:34;;;;;;;14.95;4.68;;;9.80;99.90;;;;;;5019363;28;20009;-71
2023/11/16 04:56:00;;;;;;;20.02;4.47;;;9.90;99.90;;;;;;5025166;27;20023;-72
2023/11/16 04:58:25;;;;;;;19.20;4.50;;;9.80;99.90;;;;;;5015137;27;20387;-71
2023/11/16 05:00:51;;;;;;;18.38;5.38;;;9.80;99.90;;;;;;5026118;27;20094;-71
2023/11/16 05:03:17;;;;;;;16.05;5.03;;;9.80;99.90;;;;;;5014300;28;20033;-72
2023/11/16 05:05:42;;;;;;;16.23;5.20;;;9.90;99.90;;;;;;5022110;27;20470;-71
2023/11/16 05:08:08;;;;;;;20.38;5.30;;;9.90;99.90;;;;;;5025283;27;20042;-72
2023/11/16 05:10:34;;;;;;;14.98;4.35;;;9.90;99.90;;;;;;5016516;28;20021;-71
2023/11/16 05:12:59;;;;;;;13.55;3.88;;;10.00;99.90;;;;;;5024912;27;20034;-71
2023/11/16 05:15:25;;;;;;;18.17;4.45;;;9.90;99.90;;;;;;5023162;28;20015;-71
2023/11/16 05:17:51;;;;;;;23.95;4.68;;;9.90;99.90;;;;;;5033352;28;20033;-72
2023/11/16 05:20:16;;;;;;;16.13;5.30;;;9.90;99.90;;;;;;5034217;28;20044;-72
2023/11/16 05:22:43;;;;;;;14.10;4.50;;;9.90;99.90;;;;;;5030110;28;20027;-71
2023/11/16 05:25:10;;;;;;;14.63;4.15;;;10.00;99.90;;;;;;5015392;28;20014;-71
2023/11/16 05:27:37;;;;;;;14.48;4.25;;;10.00;99.90;;;;;;5024432;28;20390;-71
2023/11/16 05:30:03;;;;;;;18.58;4.07;;;9.90;99.90;;;;;;5020980;28;20420;-71
2023/11/16 05:32:29;;;;;;;14.25;4.47;;;9.90;99.90;;;;;;5018982;28;20065;-71
2023/11/16 05:34:54;;;;;;;13.68;4.55;;;9.90;99.90;;;;;;5033757;28;20084;-72
2023/11/16 05:37:20;;;;;;;19.83;4.95;;;10.00;99.90;;;;;;5026661;28;20057;-72
2023/11/16 05:39:46;;;;;;;11.23;4.43;;;10.00;99.90;;;;;;5022054;28;20036;-73
2023/11/16 05:42:12;;;;;;;15.05;4.18;;;10.00;99.90;;;;;;5016902;28;20037;-72
2023/11/16 05:44:37;;;;;;;22.95;5.63;;;10.00;99.90;;;;;;5024664;27;20366;-71
2023/11/16 05:47:03;;;;;;;19.63;4.85;;;10.00;99.90;;;;;;5026274;28;20030;-73
2023/11/16 05:49:29;;;;;;;14.88;4.40;;;10.00;99.90;;;;;;5028698;28;20075;-72
2023/11/16 05:51:55;;;;;;;22.33;5.05;;;10.00;99.90;;;;;;5021244;27;20502;-72
2023/11/16 05:54:21;;;;;;;17.50;4.55;;;10.00;99.90;;;;;;5031543;27;20017;-71
2023/11/16 05:56:48;;;;;;;19.45;4.80;;;9.90;99.90;;;;;;5035332;27;20470;-71
2023/11/16 05:59:14;;;;;;;18.75;4.60;;;9.90;99.90;;;;;;5036846;27;20022;-72
2023/11/16 06:01:44;;;;;;;14.50;4.18;;;9.90;99.90;;;;;;5046078;27;20510;-71
2023/11/16 06:04:11;;;;;;;21.40;4.78;;;9.90;99.90;;;;;;5036622;27;20026;-72
2023/11/16 06:06:37;;;;;;;15.32;4.45;;;9.90;99.90;;;;;;5036658;27;20022;-72
2023/11/16 06:09:03;;;;;;;13.60;4.93;;;10.00;99.90;;;;;;5032699;27;20052;-72
2023/11/16 06:11:29;;;;;;;19.02;5.03;;;9.90;99.90;;;;;;5027496;27;20072;-72
2023/11/16 06:13:56;;;;;;;16.40;4.53;;;9.80;99.90;;;;;;5028662;27;20530;-72
2023/11/16 06:16:23;;;;;;;20.60;4.57;;;9.90;99.90;;;;;;5038623;27;20027;-72
2023/11/16 06:18:49;;;;;;;18.58;4.95;;;9.80;99.90;;;;;;5019518;28;20497;-71
2023/11/16 06:21:15;;;;;;;19.15;4.53;;;9.80;99.90;;;;;;5038906;27;20046;-71
2023/11/16 06:23:41;;;;;;;19.77;5.20;;;9.80;99.90;;;;;;5027648;27;20680;-71
2023/11/16 06:26:07;;;;;;;23.40;5.43;;;9.80;99.90;;;;;;5022878;27;20033;-71
2023/11/16 06:28:32;;;;;;;14.98;4.85;;;9.90;99.90;;;;;;5038461;27;20501;-72
2023/11/16 06:30:58;;;;;;;16.25;4.72;;;9.90;99.90;;;;;;5018363;27;20069;-71
2023/11/16 06:33:23;;;;;;;22.23;5.45;;;10.00;99.90;;;;;;5026440;27;20021;-74
2023/11/16 06:35:49;;;;;;;17.08;4.78;;;10.00;99.90;;;;;;5036988;27;20027;-72
2023/11/16 06:38:16;;;;;;;15.57;4.97;;;10.00;99.90;;;;;;5014133;28;20022;-72
2023/11/16 06:40:41;;;;;;;20.65;5.15;;;10.10;99.90;;;;;;5030702;27;20037;-71
2023/11/16 06:43:10;;;;;;;14.82;5.43;;;10.10;99.90;;;;;;5028622;27;20374;-72
2023/11/16 06:45:40;;;;;;;21.70;4.93;;;10.10;99.90;;;;;;5029765;27;20025;-71
2023/11/16 06:48:06;;;;;;;19.00;5.13;;;10.10;99.90;;;;;;5024529;27;20079;-72
2023/11/16 06:50:34;;;;;;;15.63;4.82;;;10.10;99.90;;;;;;5028866;27;20018;-71
2023/11/16 06:53:05;;;;;;;18.08;5.07;;;10.10;99.90;;;;;;5020338;28;20355;-72
2023/11/16 06:55:34;;;;;;;17.83;4.90;;;10.10;99.90;;;;;;5031786;27;20022;-72
2023/11/16 06:58:00;;;;;;;22.70;4.88;;;10.10;99.90;;;;;;5021456;27;20034;-71
2023/11/16 07:00:27;;;;;;;14.02;4.78;;;10.10;99.90;;;;;;5029273;27;20137;-71
2023/11/16 07:02:54;;;;;;;15.15;4.85;;;10.10;99.90;;;;;;5032774;27;20501;-72
2023/11/16 07:05:20;;;;;;;14.25;5.82;;;10.10;99.90;;;;;;5021692;27;20022;-71
2023/11/16 07:07:46;;;;;;;21.50;5.43;;;10.10;99.90;;;;;;5037341;27;20032;-71
2023/11/16 07:10:12;;;;;;;19.17;4.97;;;10.10;99.90;;;;;;5018484;27;20075;-71
2023/11/16 07:12:42;;;;;;;13.98;5.68;;;10.20;99.90;;;;;;5031615;27;20029;-71
2023/11/16 07:15:10;;;;;;;17.52;5.22;;;10.20;99.90;;;;;;5019225;27;20379;-71
2023/11/16 07:17:37;;;;;;;19.15;6.15;;;10.20;99.90;;;;;;5035529;27;20009;-71
2023/11/16 07:20:09;;;;;;;16.70;5.38;;;10.10;99.90;;;;;;5032559;27;20253;-71
2023/11/16 07:22:36;;;;;;;22.55;6.30;;;10.10;99.90;;;;;;5031253;27;20060;-70
2023/11/16 07:25:06;;;;;;;17.05;5.47;;;10.20;99.90;;;;;;5035115;27;20032;-70
2023/11/16 07:27:32;;;;;;;15.98;5.38;;;10.20;99.90;;;;;;5033767;27;20030;-71
2023/11/16 07:29:58;;;;;;;16.00;5.72;;;10.20;99.90;;;;;;5023954;28;20018;-72
2023/11/16 07:32:24;;;;;;;15.73;5.18;;;10.20;99.90;;;;;;5017822;27;20096;-72
2023/11/16 07:34:50;;;;;;;27.40;5.22;;;10.30;99.90;;;;;;5025397;27;20033;-72
2023/11/16 07:37:16;;;;;;;17.20;5.40;;;10.30;99.90;;;;;;5019515;28;20471;-73
2023/11/16 07:39:42;;;;;;;28.35;6.07;;;10.30;99.90;;;;;;5023534;27;20034;-72
2023/11/16 07:42:09;;;;;;;15.63;5.13;;;10.20;99.90;;;;;;5026443;27;20034;-71
2023/11/16 07:44:37;;;;;;;23.48;4.88;;;10.30;99.90;;;;;;5032350;27;20500;-70
2023/11/16 07:47:03;;;;;;;19.10;4.68;;;10.20;99.90;;;;;;5020461;28;20034;-72
2023/11/16 07:49:29;;;;;;;15.73;4.70;;;10.20;99.90;;;;;;5036288;27;20021;-71
2023/11/16 07:51:55;;;;;;;16.67;5.30;;;10.10;99.90;;;;;;5048146;27;20083;-75
2023/11/16 07:54:21;;;;;;;21.30;4.72;;;10.10;99.90;;;;;;5039517;27;20061;-71
2023/11/16 07:56:52;;;;;;;20.15;4.63;;;10.10;99.90;;;;;;5016133;28;20019;-71
2023/11/16 07:59:25;;;;;;;14.93;4.75;;;10.00;99.90;;;;;;5032982;27;20027;-73
2023/11/16 08:01:55;;;;;;;19.10;4.68;;;10.00;99.90;;;;;;5020236;28;20090;-73
2023/11/16 08:04:25;;;;;;;16.45;4.35;;;10.00;99.90;;;;;;5022109;27;20138;-72
2023/11/16 08:06:55;;;;;;;18.58;5.43;;;10.00;99.90;;;;;;5020873;27;20034;-71
2023/11/16 08:09:26;;;;;;;19.42;4.93;;;10.10;99.90;;;;;;5031041;27;20021;-73
2023/11/16 08:11:54;;;;;;;15.32;4.97;;;10.20;99.90;;;;;;5017677;28;20029;-72
2023/11/16 08:14:24;;;;;;;23.48;5.82;;;10.20;99.90;;;;;;5033761;27;20320;-74
2023/11/16 08:16:51;;;;;;;14.45;4.72;;;10.40;99.90;;;;;;5020971;27;20038;-72
2023/11/16 08:19:19;;;;;;;21.80;4.68;;;10.40;99.90;;;;;;5024357;27;20018;-73
2023/11/16 08:21:45;;;;;;;15.68;4.88;;;10.40;99.90;;;;;;5030921;27;20047;-74
2023/11/16 08:24:14;;;;;;;18.85;5.10;;;10.40;99.90;;;;;;5023060;27;20386;-72
2023/11/16 08:26:41;;;;;;;24.08;4.70;;;10.40;99.90;;;;;;5014703;28;20764;-72
2023/11/16 08:29:06;;;;;;;16.65;4.63;;;10.40;99.90;;;;;;5017102;28;20029;-72
2023/11/16 08:31:32;;;;;;;20.23;4.90;;;10.40;99.90;;;;;;5014934;28;20026;-73
2023/11/16 08:33:58;;;;;;;16.25;4.70;;;10.30;99.90;;;;;;5029684;27;20124;-74
2023/11/16 08:36:25;;;;;;;17.33;4.07;;;10.40;99.90;;;;;;5029086;27;20113;-71
2023/11/16 08:38:51;;;;;;;17.90;5.15;;;10.50;99.90;;;;;;5022412;27;20482;-70
2023/11/16 08:41:17;;;;;;;22.05;4.85;;;10.50;99.90;;;;;;5024131;27;20041;-71
2023/11/16 08:43:45;;;;;;;20.85;5.18;;;10.50;99.90;;;;;;5019704;27;20364;-72
2023/11/16 08:46:20;;;;;;;20.63;5.72;;;10.50;99.90;;;;;;5024890;28;20033;-71
2023/11/16 08:48:47;;;;;;;15.82;5.15;;;10.40;99.90;;;;;;5022638;27;20042;-75
2023/11/16 08:51:15;;;;;;;14.98;5.15;;;10.50;99.90;;;;;;5024169;27;20041;-76
2023/11/16 08:53:44;;;;;;;19.55;5.10;;;10.40;99.90;;;;;;5024987;27;20022;-75
2023/11/16 08:56:11;;;;;;;14.45;4.70;;;10.30;99.90;;;;;;5030176;27;20104;-76
2023/11/16 08:58:39;;;;;;;16.45;5.15;;;10.30;99.90;;;;;;5022125;27;20026;-76
2023/11/16 09:01:06;;;;;;;16.15;4.60;;;10.30;99.90;;;;;;5030173;27;20045;-75
2023/11/16 09:03:33;;;;;;;13.70;4.60;;;10.20;99.90;;;;;;5035456;27;20014;-75
2023/11/16 09:06:03;;;;;;;19.60;5.07;;;10.30;99.90;;;;;;5034452;27;20026;-75
2023/11/16 09:08:29;;;;;;;15.52;5.00;;;10.30;99.90;;;;;;5036627;27;20034;-75
2023/11/16 09:10:55;;;;;;;18.55;4.97;;;10.40;99.90;;;;;;5026157;27;20075;-75
2023/11/16 09:13:24;;;;;;;17.45;5.20;;;10.40;99.90;;;;;;5034031;27;20029;-74
2023/11/16 09:15:50;;;;;;;15.38;5.05;;;10.40;99.90;;;;;;4998929;27;20030;-74
2023/11/16 09:18:16;;;;;;;19.20;5.70;;;10.50;99.90;;;;;;5031318;28;20111;-75
2023/11/16 09:20:46;;;;;;;17.05;4.70;;;10.40;99.90;;;;;;5030201;28;20064;-74
2023/11/16 09:23:13;;;;;;;20.50;5.22;;;10.30;99.90;;;;;;5033696;28;20048;-75
2023/11/16 09:25:39;;;;;;;18.95;4.80;;;10.40;99.90;;;;;;5042448;28;20104;-75
2023/11/16 09:28:06;;;;;;;22.75;5.07;;;10.50;99.90;;;;;;5040444;28;20085;-75
2023/11/16 09:30:34;;;;;;;20.35;5.60;;;10.50;99.90;;;;;;5029771;28;20058;-76
2023/11/16 09:33:02;;;;;;;17.35;4.93;;;10.50;99.90;;;;;;5029360;28;20099;-76
2023/11/16 09:35:28;;;;;;;22.30;5.60;;;10.50;99.90;;;;;;5031508;28;20137;-76
2023/11/16 09:37:55;;;;;;;16.13;4.90;;;10.50;99.90;;;;;;5038058;28;20045;-75
2023/11/16 09:40:32;;;;;;;18.02;5.35;;;10.50;99.90;;;;;;5026300;28;20386;-75
2023/11/16 09:43:00;;;;;;;17.98;5.63;;;10.50;99.90;;;;;;5034273;28;20017;-75
2023/11/16 09:45:34;;;;;;;21.52;5.38;;;10.50;99.90;;;;;;5043374;28;20036;-76
2023/11/16 09:48:00;;;;;;;16.63;4.88;;;10.60;99.90;;;;;;5030774;28;20021;-75
2023/11/16 09:50:28;;;;;;;20.75;5.68;;;10.60;99.90;;;;;;5031404;28;20036;-75
2023/11/16 09:52:57;;;;;;;17.20;5.82;;;10.60;99.90;;;;;;5027942;28;20025;-75
2023/11/16 09:55:33;;;;;;;17.65;5.95;;;10.50;99.90;;;;;;5036341;28;20073;-75
2023/11/16 09:58:08;;;;;;;19.23;5.68;;;10.50;99.90;;;;;;5040200;28;20015;-75
2023/11/16 10:00:34;;;;;;;20.52;5.40;;;10.50;99.90;;;;;;5039131;28;20058;-75
2023/11/16 10:03:05;;;;;;;18.52;5.93;;;10.50;99.90;;;;;;5031926;28;20477;-75
2023/11/16 10:05:36;;;;;;;27.60;6.20;;;10.50;99.90;;;;;;5029845;27;20537;-75
2023/11/16 10:11:32;;;;;;;22.60;5.88;;;10.50;99.90;;;;;;5017667;28;20045;-78
2023/11/16 10:13:58;;;;;;;19.42;5.97;;;10.50;99.90;;;;;;5029474;28;20097;-75
2023/11/16 10:16:28;;;;;;;21.08;6.05;;;10.50;99.90;;;;;;5040212;28;20028;-75
2023/11/16 10:19:00;;;;;;;27.20;6.57;;;10.50;99.90;;;;;;5041922;28;20054;-75
2023/11/16 10:21:26;;;;;;;16.40;5.50;;;10.60;99.90;;;;;;5040372;28;20056;-74
2023/11/16 10:23:52;;;;;;;17.30;5.45;;;10.70;99.90;;;;;;5024781;28;20025;-74
2023/11/16 10:26:18;;;;;;;19.23;6.35;;;10.70;99.90;;;;;;5035324;28;20020;-75
2023/11/16 10:28:53;;;;;;;20.40;6.05;;;10.80;99.90;;;;;;5031503;28;20673;-75
2023/11/16 10:31:22;;;;;;;18.27;6.22;;;10.70;99.90;;;;;;5037231;28;20489;-75
2023/11/16 10:33:49;;;;;;;22.92;6.13;;;10.60;99.90;;;;;;5035404;28;20024;-75
2023/11/16 10:36:15;;;;;;;20.73;6.95;;;10.60;99.90;;;;;;5024668;28;20082;-74
2023/11/16 10:38:45;;;;;;;23.73;5.90;;;10.60;99.90;;;;;;5034925;27;20009;-74
2023/11/16 10:41:12;;;;;;;24.52;6.22;;;10.60;99.90;;;;;;5041508;27;20056;-75
2023/11/16 10:43:39;;;;;;;20.95;6.18;;;10.60;99.90;;;;;;5040447;27;20025;-74
2023/11/16 10:46:07;;;;;;;19.02;6.10;;;10.60;99.90;;;;;;5040519;27;20055;-75
2023/11/16 10:48:33;;;;;;;24.70;6.63;;;10.70;99.90;;;;;;5035615;28;20024;-75
2023/11/16 10:51:01;;;;;;;17.42;6.63;;;10.70;99.90;;;;;;5037840;27;20030;-76
2023/11/16 10:53:32;;;;;;;13.02;6.60;;;10.70;99.90;;;;;;5032015;27;20028;-75
2023/11/16 10:55:58;;;;;;;17.93;6.87;;;10.70;99.90;;;;;;5039600;27;20018;-76
2023/11/16 10:58:27;;;;;;;18.95;7.40;;;10.80;99.90;;;;;;5034580;27;20025;-76
2023/11/16 11:00:59;;;;;;;17.83;6.75;;;10.90;99.90;;;;;;5036598;27;20025;-75
2023/11/16 11:03:25;;;;;;;20.60;7.05;;;10.80;99.90;;;;;;5028038;28;20181;-75
2023/11/16 11:05:57;;;;;;;20.77;8.18;;;10.80;99.90;;;;;;5034342;27;20083;-76
2023/11/16 11:08:35;;;;;;;17.50;7.20;;;10.80;99.90;;;;;;5038741;27;20033;-76
2023/11/16 11:11:03;;;;;;;26.50;7.40;;;10.70;99.90;;;;;;5032907;27;20018;-75
2023/11/16 11:13:32;;;;;;;18.17;6.45;;;10.70;99.90;;;;;;5029330;27;20030;-75
2023/11/16 11:16:05;;;;;;;20.50;7.05;;;10.60;99.90;;;;;;5033746;27;20071;-76
2023/11/16 11:18:31;;;;;;;19.17;7.70;;;10.60;99.90;;;;;;5031242;27;20078;-75
2023/11/16 11:21:07;;;;;;;19.13;7.38;;;10.60;99.90;;;;;;5038044;28;20052;-75
2023/11/16 11:23:33;;;;;;;24.83;6.93;;;10.60;99.90;;;;;;5036756;27;20066;-75
2023/11/16 11:26:04;;;;;;;22.33;7.63;;;10.60;99.90;;;;;;5033494;27;20040;-76
2023/11/16 11:28:30;;;;;;;22.02;7.63;;;10.50;99.90;;;;;;5034838;27;20026;-75
2023/11/16 11:30:59;;;;;;;17.05;6.00;;;10.50;99.90;;;;;;5033465;27;20025;-75
2023/11/16 11:33:35;;;;;;;22.45;7.88;;;10.40;99.90;;;;;;5026148;27;20033;-74
2023/11/16 11:36:08;;;;;;;19.02;6.72;;;10.40;99.90;;;;;;5037842;27;20500;-75
2023/11/16 11:38:38;;;;;;;19.30;7.85;;;10.40;99.90;;;;;;5034050;27;20021;-75
2023/11/16 11:41:08;;;;;;;19.75;7.60;;;10.40;99.90;;;;;;5042940;27;20032;-75
2023/11/16 11:43:38;;;;;;;19.60;8.25;;;10.40;99.90;;;;;;5038187;28;20573;-75
2023/11/16 11:46:11;;;;;;;17.42;6.90;;;10.40;99.90;;;;;;5033994;27;20140;-75
2023/11/16 11:48:40;;;;;;;;;;;10.40;99.90;;;;;;5033210;28;20029;-76
2023/11/16 11:51:14;;;;;;;21.98;7.50;;;10.40;99.90;;;;;;5043503;27;20009;-75
2023/11/16 11:53:40;;;;;;;18.00;7.22;;;10.40;99.90;;;;;;5032843;27;20049;-76
2023/11/16 11:56:11;;;;;;;17.33;6.95;;;10.30;99.90;;;;;;5033567;27;20028;-75
2023/11/16 11:58:37;;;;;;;25.48;7.47;;;10.30;99.90;;;;;;5037999;27;20030;-76
2023/11/16 12:01:05;;;;;;;21.23;7.40;;;10.30;99.90;;;;;;5041011;27;20128;-74
2023/11/16 12:03:32;;;;;;;27.45;7.25;;;10.40;99.90;;;;;;5032069;28;20032;-74
2023/11/16 12:06:00;;;;;;;18.55;7.38;;;10.30;99.90;;;;;;5034676;27;20070;-75
2023/11/16 12:08:42;;;;;;;17.10;6.88;;;10.40;99.90;;;;;;5041720;27;20053;-74
2023/11/16 12:11:11;;;;;;;23.80;8.00;;;10.50;99.90;;;;;;5040044;27;20048;-75
2023/11/16 12:13:38;;;;;;;29.30;8.10;;;10.50;99.90;;;;;;5039247;27;20034;-75
2023/11/16 12:16:07;;;;;;;22.83;8.75;;;10.50;99.90;;;;;;5039484;27;20032;-75
2023/11/16 12:18:41;;;;;;;21.10;8.95;;;10.50;99.90;;;;;;5030526;27;20049;-74
2023/11/16 12:21:17;;;;;;;22.48;8.80;;;10.50;99.90;;;;;;5038101;27;20396;-75
2023/11/16 12:23:54;;;;;;;22.70;8.73;;;10.40;99.90;;;;;;5032639;27;20106;-76
2023/11/16 12:26:28;;;;;;;20.40;8.38;;;10.50;99.90;;;;;;5039969;27;20023;-76
2023/11/16 12:28:56;;;;;;;19.88;9.27;;;10.50;99.90;;;;;;5043546;27;20033;-74
2023/11/16 12:31:22;;;;;;;24.67;8.98;;;10.60;99.90;;;;;;5025422;27;20029;-74
2023/11/16 12:33:48;;;;;;;20.58;8.98;;;10.60;99.90;;;;;;5040115;27;20775;-75
2023/11/16 12:36:20;;;;;;;25.25;9.02;;;10.60;99.90;;;;;;5034531;28;20052;-73
2023/11/16 12:38:48;;;;;;;20.50;8.80;;;10.50;99.90;;;;;;5031506;27;20025;-72
2023/11/16 12:41:14;;;;;;;18.35;7.75;;;10.60;99.90;;;;;;5024089;27;20078;-72
2023/11/16 12:43:40;;;;;;;26.98;9.18;;;10.50;99.90;;;;;;5033865;27;20022;-72